Saison 2021 · Manche 20

Qatar Grand Prix

2021-11-21 · Losail International Circuit · Qatar · Qatar Grand Prix · 57Lap · 306.660km
Mercedes 1:24:28.471
Red Bull +25.743
Victoire par équipe 31pt P2 · P4
Meilleur tour
1:23.196 · L57
Abandon
2
Nicholas Latifi L50 Valtteri Bottas L48
Utilisation des pneus Direction de course
Storylines · This Grand Prix & circuit
Most SC/VSC · all-time P1
Circuit Info
57Lap 306.660km 5 courses held (2021–) Record du tour 1:22.384 · Lando Norris (2024)
Records Watch · Active drivers ranked at this Grand Prix
P1 Max Verstappen 3 victoires · GP #1
P2 Lewis Hamilton 1 victoires · → Max Verstappen -2
P1 Lewis Hamilton 1 · GP #1
P1 George Russell 1 · GP #1
P1 Max Verstappen 1 · GP #1
P1 Max Verstappen 4 · GP #1
P3 Lewis Hamilton 1 · → Oscar Piastri -2
P1 Fernando Alonso 4 départs · GP #1
P1 Pierre Gasly 4 départs · GP #1
P1 Lewis Hamilton 4 départs · GP #1
Course Trace · position by lap
départ arrêté SG 1 6 11 16 21 26 31 36 41 46 51 56 Hamilton · arrêt aux stands L18 Hamilton · arrêt aux stands L42 Hamilton HAM Hamilton HAM Verstappen · arrêt aux stands L17 Verstappen · arrêt aux stands L41 Verstappen · arrêt aux stands L55 Verstappen VER Verstappen VER Alonso · arrêt aux stands L23 Alonso ALO Alonso ALO Pérez · arrêt aux stands L19 Pérez · arrêt aux stands L41 Pérez PER Pérez PER Ocon · arrêt aux stands L24 Ocon OCO Ocon OCO Stroll · arrêt aux stands L23 Stroll STR Stroll STR Sainz · arrêt aux stands L27 Sainz SAI Sainz SAI Leclerc · arrêt aux stands L27 Leclerc LEC Leclerc LEC Norris · arrêt aux stands L25 Norris · arrêt aux stands L49 Norris NOR Norris NOR Vettel · arrêt aux stands L26 Vettel VET Vettel VET Gasly · arrêt aux stands L13 Gasly · arrêt aux stands L35 Gasly GAS Gasly GAS Ricciardo · arrêt aux stands L26 Ricciardo RIC Ricciardo RIC Tsunoda · arrêt aux stands L9 Tsunoda · arrêt aux stands L34 Tsunoda TSU Tsunoda TSU Räikkönen · arrêt aux stands L10 Räikkönen · arrêt aux stands L30 Räikkönen RAI Räikkönen RAI Giovinazzi · arrêt aux stands L15 Giovinazzi · arrêt aux stands L32 Giovinazzi GIO Giovinazzi GIO Schumacher · arrêt aux stands L22 Schumacher MSC Schumacher MSC Russell · arrêt aux stands L17 Russell · arrêt aux stands L49 Russell RUS Russell RUS Mazepin · arrêt aux stands L31 Mazepin MAZ Mazepin MAZ Latifi · arrêt aux stands L18 Latifi · abandon L50 Latifi LAT Latifi LAT Bottas · arrêt aux stands L33 Bottas · abandon L48 Bottas BOT Bottas BOT
arrêt aux stands pénalité purgée aux stands SG Grille de départ voiture arrêtée position à chaque tour (depuis 1996)
PosPiloteTeamGrilleTourTemps / StatutPoints
1 44 Lewis Hamilton Mercedes 1 57 1:24:28.471 25
2 33 Max Verstappen FL Red Bull 7 57 +25.743 19
3 14 Fernando Alonso Alpine F1 Team 3 57 +59.457 15
4 11 Sergio Pérez Red Bull 11 57 +1:02.306 12
5 31 Esteban Ocon Alpine F1 Team 9 57 +1:20.570 10
6 18 Lance Stroll Aston Martin 12 57 +1:21.274 8
7 55 Carlos Sainz Ferrari 5 57 +1:21.911 6
8 16 Charles Leclerc Ferrari 13 57 +1:23.126 4
9 4 Lando Norris McLaren 4 56 +1 Tour 2
10 5 Sebastian Vettel Aston Martin 10 56 +1 Tour 1
11 10 Pierre Gasly AlphaTauri 2 56 +1 Tour
12 3 Daniel Ricciardo McLaren 14 56 +1 Tour
13 22 Yuki Tsunoda AlphaTauri 8 56 +1 Tour
14 7 Kimi Räikkönen Alfa Romeo 16 56 +1 Tour
15 99 Antonio Giovinazzi Alfa Romeo 18 56 +1 Tour
16 47 Mick Schumacher Haas F1 Team 19 56 +1 Tour
17 63 George Russell Williams 15 55 +2 Tours
18 9 Nikita Mazepin Haas F1 Team 20 55 +2 Tours
R 6 Nicholas Latifi Williams 17 50 Puncture
R 77 Valtteri Bottas Mercedes 6 48 Damage
PosPiloteTeamQ1Q2Q3Écart à la pole
1 44 Lewis Hamilton Mercedes 1:21.901 1:21.682 1:20.827 POLE Q3
2 33 Max Verstappen Red Bull 1:21.996 1:21.984 1:21.282 +0.455 Q3
3 77 Valtteri Bottas Mercedes 1:22.016 1:21.991 1:21.478 +0.651 Q3
4 10 Pierre Gasly AlphaTauri 1:22.535 1:21.728 1:21.640 +0.813 Q3
5 14 Fernando Alonso Alpine F1 Team 1:22.422 1:21.894 1:21.670 +0.843 Q3
6 4 Lando Norris McLaren 1:22.839 1:22.216 1:21.731 +0.904 Q3
7 55 Carlos Sainz Ferrari 1:22.304 1:22.241 1:21.840 +1.013 Q3
8 22 Yuki Tsunoda AlphaTauri 1:22.458 1:22.058 1:21.881 +1.054 Q3
9 31 Esteban Ocon Alpine F1 Team 1:22.565 1:22.012 1:22.028 +1.185 Q2
10 5 Sebastian Vettel Aston Martin 1:22.549 1:22.146 1:22.785 +1.319 Q2
11 11 Sergio Pérez Red Bull 1:22.398 1:22.346 +1.519 Q2
12 18 Lance Stroll Aston Martin 1:22.551 1:22.460 +1.633 Q2
13 16 Charles Leclerc Ferrari 1:22.742 1:22.463 +1.636 Q2
14 3 Daniel Ricciardo McLaren 1:22.688 1:22.597 +1.770 Q2
15 63 George Russell Williams 1:22.863 1:22.756 +1.929 Q2
16 7 Kimi Räikkönen Alfa Romeo 1:23.156 +2.329 Q1
17 6 Nicholas Latifi Williams 1:23.213 +2.386 Q1
18 99 Antonio Giovinazzi Alfa Romeo 1:23.262 +2.435 Q1
19 47 Mick Schumacher Haas F1 Team 1:23.407 +2.580 Q1
20 9 Nikita Mazepin Haas F1 Team 1:25.859 +5.032 Q1
Grille de départ
Officielle
Final grid as classé, including any depuis la voie des stands départs. Source: Jolpica-F1. The arrow compares the grid slot with the les qualifications classification; hover a drop to see the stewards document behind it.
Aucune donnée pour cette séance.
Non collecté pour cette époque : la source ne couvre qu à partir de 2023.
Non collecté pour cette époque : la source ne couvre qu à partir de 2023.
Non collecté pour cette époque : la source ne couvre qu à partir de 2023.
#PiloteTemps au tourTour
1 33 Max Verstappen 1:23.196 L57
2 33 Max Verstappen 1:24.031 L54
3 33 Max Verstappen 1:25.030 L46
4 44 Lewis Hamilton 1:25.084 L50
5 44 Lewis Hamilton 1:25.295 L45
6 11 Sergio Pérez 1:25.613 L49
7 44 Lewis Hamilton 1:25.668 L52
8 11 Sergio Pérez 1:25.722 L52
9 4 Lando Norris 1:25.746 L51
10 11 Sergio Pérez 1:25.747 L43
Top 10 la plus rapide race tours — #1 is the la plus rapide lap of la course(FL).
Arrêts aux stands · comparaison
25s 30s 35s médiane 25.7s Max Verstappen · L41 · 25.175s Lewis Hamilton · L18 · 25.235s Max Verstappen · L17 · 25.300s Lando Norris · L25 · 25.319s Antonio Giovinazzi · L32 · 25.347s Lewis Hamilton · L42 · 25.381s Sergio Pérez · L19 · 25.419s Sergio Pérez · L41 · 25.420s Max Verstappen · L55 · 25.465s Esteban Ocon · L24 · 25.517s Daniel Ricciardo · L26 · 25.562s Pierre Gasly · L13 · 25.630s Kimi Räikkönen · L30 · 25.633s Carlos Sainz · L27 · 25.639s Yuki Tsunoda · L9 · 25.659s Sebastian Vettel · L26 · 25.726s Charles Leclerc · L27 · 25.799s Nicholas Latifi · L18 · 25.811s Mick Schumacher · L22 · 25.881s Antonio Giovinazzi · L15 · 25.987s Fernando Alonso · L23 · 25.991s Pierre Gasly · L35 · 26.109s George Russell · L17 · 26.121s Lance Stroll · L23 · 26.157s Kimi Räikkönen · L10 · 26.174s Nikita Mazepin · L31 · 26.515s Lando Norris · L49 · 26.552s Yuki Tsunoda · L34 · 26.674s George Russell · L49 · 35.006s Valtteri Bottas · L33 · 36.341s
la plus rapide 25.175s Max Verstappen la plus lente 36.341s Valtteri Bottas temps de passage dans la voie des stands — un point par arrêt
PiloteArrêtTourTempsPassage dans la voie des stands
22 Yuki Tsunoda 1 9 17:17:42 25.659s
7 Kimi Räikkönen 1 10 17:19:14 26.174s
10 Pierre Gasly 1 13 17:23:37 25.630s
99 Antonio Giovinazzi 1 15 17:26:54 25.987s
63 George Russell 1 17 17:30:00 26.121s
33 Max Verstappen 1 17 17:29:03 25.300s
6 Nicholas Latifi 1 18 17:31:31 25.811s
44 Lewis Hamilton 1 18 17:30:21 25.235s
11 Sergio Pérez 1 19 17:32:28 25.419s
47 Mick Schumacher 1 22 17:37:38 25.881s
18 Lance Stroll 1 23 17:38:40 26.157s
14 Fernando Alonso 1 23 17:38:20 25.991s
31 Esteban Ocon 1 24 17:40:07 25.517s
4 Lando Norris 1 25 17:41:32 25.319s
5 Sebastian Vettel 1 26 17:43:20 25.726s
3 Daniel Ricciardo 1 26 17:43:19 25.562s
16 Charles Leclerc 1 27 17:44:46 25.799s
55 Carlos Sainz 1 27 17:44:36 25.639s
7 Kimi Räikkönen 2 30 17:49:40 25.633s
9 Nikita Mazepin 1 31 17:51:36 26.515s
99 Antonio Giovinazzi 2 32 17:52:43 25.347s
77 Valtteri Bottas 1 33 17:53:44 36.341s
22 Yuki Tsunoda 2 34 17:55:29 26.674s
10 Pierre Gasly 2 35 17:56:42 26.109s
33 Max Verstappen 2 41 18:04:20 25.175s
11 Sergio Pérez 2 41 18:05:15 25.420s
44 Lewis Hamilton 2 42 18:05:37 25.381s
63 George Russell 2 49 18:18:36 35.006s
4 Lando Norris 2 49 18:17:08 26.552s
33 Max Verstappen 3 55 18:24:59 25.465s
Non collecté pour cette époque : la source ne couvre qu à partir de 2023.
Plus de places gagnées en piste
11
+17
P11→P4
5
+15
P10→P10
10
+14
P2→P11
7
+14
P16→P14
99
+14
P18→P15
16
+13
P13→P8
3
+13
P14→P12
22
+13
P8→P13
Plus de places perdues
Pierre Gasly −22 Yuki Tsunoda −18 Kimi Räikkönen −16
Course · Somme des places gagnées en piste tour par tour — tour de départ et tours aux stands du pilote exclus. Données de tours de course depuis 1996.
PiloteTypeTourPurgéeInfligéeMotif
77 Valtteri Bottas Pénalité sur la grille ▼3 (P3 → P6)
▼3 (P3 → P6)
33 Max Verstappen Pénalité sur la grille ▼5 (P2 → P7)
▼5 (P2 → P7)
Tour = tour où la pénalité a été infligée · Purgée = tour où elle a été purgée aux stands (vide : ajoutée au temps de course)
Time, drive-through and stop-go penalties come from race control messages (OpenF1, 2023+). Grille penalties never appear there — the stewards publish them as documents after the session — so they are worked back from the starting grid against the les qualifications classification, which gives places actually lost rather than the figure written in the decision.
PiloteTypeTourPurgéeInfligéeMotif
55 Carlos Sainz No further action Decision - Car 55 - Single yellow flag (No further action.) Document FIA ↗
Decision - Car 55 - Single yellow flag (No further action.) Document FIA ↗
Tour = tour où la pénalité a été infligée · Purgée = tour où elle a été purgée aux stands (vide : ajoutée au temps de course)
Time, drive-through and stop-go penalties come from race control messages (OpenF1, 2023+). Grille penalties never appear there — the stewards publish them as documents after the session — so they are worked back from the starting grid against the les qualifications classification, which gives places actually lost rather than the figure written in the decision.
DocTitreObjetPublished(CET)
Circuit Map ↗ 2021-11-17 15:24
2021-11-17 15:24 CET
PU elements utilisés per driver up to now ↗ 2021-11-18 11:55
2021-11-18 11:55 CET
Course Directors' Event Notes ↗ 2021-11-18 11:59
2021-11-18 11:59 CET
Initial Scrutineering ↗ 2021-11-18 17:23
2021-11-18 17:23 CET
Course Directors' Event Notes Version 2 ↗ 2021-11-18 17:42
2021-11-18 17:42 CET
Entry List ↗ 2021-11-18 18:00
2021-11-18 18:00 CET
Stewards Substitution ↗ 2021-11-19 11:26
2021-11-19 11:26 CET
P1 Classification ↗ 2021-11-19 12:47
2021-11-19 12:47 CET
Course Directors' Event Notes Version 3 ↗ 2021-11-19 14:12
2021-11-19 14:12 CET
Offence - Car 16 - Pit lane speeding ↗ 16 Charles Leclerc 2021-11-19 15:47
16 Charles Leclerc 2021-11-19 15:47 CET
P2 deleted lap times turn 16 ↗ 2021-11-19 16:28
2021-11-19 16:28 CET
P2 deleted lap times turn 8 ↗ 2021-11-19 16:28
2021-11-19 16:28 CET
P2 deleted lap times turn 7 ↗ 2021-11-19 16:28
2021-11-19 16:28 CET
P2 deleted lap times turn 2 ↗ 2021-11-19 16:28
2021-11-19 16:28 CET
P2 Classification ↗ 2021-11-19 16:32
2021-11-19 16:32 CET
Course Directors' Note - P3 Pneus ↗ 2021-11-19 17:30
2021-11-19 17:30 CET
Course Directors' Note SC2-SC1 Time ↗ 2021-11-19 17:30
2021-11-19 17:30 CET
New gearboxes for this Event ↗ 2021-11-19 18:38
2021-11-19 18:38 CET
P1 and P2 scrutineering ↗ 2021-11-19 18:38
2021-11-19 18:38 CET
Course Directors' Event Notes Version 4 ↗ 2021-11-19 20:19
2021-11-19 20:19 CET
Survival cell change car 09 ↗ 9 Nikita Mazepin 2021-11-20 10:04
9 Nikita Mazepin 2021-11-20 10:04 CET
New PU elements for this Event ↗ 2021-11-20 12:31
2021-11-20 12:31 CET
P3 deleted lap time turn 2 ↗ 2021-11-20 13:20
2021-11-20 13:20 CET
P3 deleted lap times turn 16 ↗ 2021-11-20 13:22
2021-11-20 13:22 CET
P3 deleted lap times - Double Yellow ↗ 2021-11-20 13:24
2021-11-20 13:24 CET
P3 Classification ↗ 2021-11-20 13:26
2021-11-20 13:26 CET
Course Directors' Note - Post Qualifications Procedure ↗ 2021-11-20 13:48
2021-11-20 13:48 CET
Qualifications deleted lap time turn 2 ↗ 2021-11-20 16:10
2021-11-20 16:10 CET
Qualifications deleted lap times turn 16 ↗ 2021-11-20 16:12
2021-11-20 16:12 CET
Provisional Qualifications Classification ↗ 2021-11-20 16:25
2021-11-20 16:25 CET
Dry tyre type utilisés during la plus rapide lap in Q2 ↗ 2021-11-20 18:59
2021-11-20 18:59 CET
Summons - Car 55 - alleged not respecting single waved yellow flags ↗ 55 Carlos Sainz 2021-11-20 19:47
55 Carlos Sainz 2021-11-20 19:47 CET
Summons - Car 77 - alleged not respecting single waved yellow flags ↗ 77 Valtteri Bottas 2021-11-20 19:59
77 Valtteri Bottas 2021-11-20 19:59 CET
P3 and Qualifications scrutineering ↗ 2021-11-20 20:05
2021-11-20 20:05 CET
Summons - Car 33 - alleged not respecting double yellows ↗ 33 Max Verstappen 2021-11-20 20:50
33 Max Verstappen 2021-11-20 20:50 CET
Course Directors' Note - Post Course Procedure ↗ 2021-11-21 11:32
2021-11-21 11:32 CET
Parc Fermé issues ↗ 2021-11-21 12:17
2021-11-21 12:17 CET
Course Directors' Note - Pre-Course Procedure ↗ 2021-11-21 12:59
2021-11-21 12:59 CET
Course Directors' Note - Post Course Procedure Version 2 ↗ 2021-11-21 13:00
2021-11-21 13:00 CET
Offence - Car 77 - Single waved yellow flag ↗ 77 Valtteri Bottas 2021-11-21 13:19
77 Valtteri Bottas 2021-11-21 13:19 CET
Offence - Car 33 - double yellow flags ↗ 33 Max Verstappen 2021-11-21 13:26
33 Max Verstappen 2021-11-21 13:26 CET
Decision - Car 55 - Single yellow flag ↗ 55 Carlos Sainz 2021-11-21 13:37
55 Carlos Sainz 2021-11-21 13:37 CET
Final Qualifications Classification ↗ 2021-11-21 13:42
2021-11-21 13:42 CET
Provisional Starting Grille ↗ 2021-11-21 13:45
2021-11-21 13:45 CET
Parts and parameters been replaced or changed during the Parc Fermé ↗ 2021-11-21 13:56
2021-11-21 13:56 CET
Final Starting Grille ↗ 2021-11-21 14:08
2021-11-21 14:08 CET
Course deleted lap times turn 16 ↗ 2021-11-21 16:38
2021-11-21 16:38 CET
Course deleted lap times turn 2 ↗ 2021-11-21 16:38
2021-11-21 16:38 CET
Summons - Christian Horner ↗ 2021-11-21 16:55
2021-11-21 16:55 CET
Provisional Course Classification ↗ 2021-11-21 16:56
2021-11-21 16:56 CET
Offence - Christian Horner ↗ 2021-11-21 17:53
2021-11-21 17:53 CET
Course scrutineering ↗ 2021-11-21 18:24
2021-11-21 18:24 CET
Final Course Classification ↗ 2021-11-21 18:43
2021-11-21 18:43 CET
Championnat Points ↗ 2021-11-21 18:54
2021-11-21 18:54 CET
FIA official decisions and documents (fia.com) · PDF original PDF links
Record Basis · Calculation basis
Course order is the final classification(post-race penalties applied) · les qualifications session data 2003+ · lap times 1996+ · pit stops 2012+ (pit-lane transit, not stationary time) · Abandon = Finished(Finished·+N Tours) non-Finished statuses
Sources des données: Jolpica-F1 (Ergast compatible API) · weather·Direction de course OpenF1 (2023+) · Last fetched: 2026-09-05 14:15